createdAt,value
2019-03-13T00:01:34.835Z,100679.31
2019-03-13T00:04:05.713Z,100681.23
2019-03-13T00:06:37.999Z,100662.93
2019-03-13T00:09:13.187Z,100668.98
2019-03-13T00:11:44.250Z,100664.48
2019-03-13T00:14:14.870Z,100664.05
2019-03-13T00:16:45.642Z,100655.23
2019-03-13T00:19:16.546Z,100653.31
2019-03-13T00:21:48.248Z,100650.37
2019-03-13T00:24:18.989Z,100660.78
2019-03-13T00:26:49.889Z,100653.27
2019-03-13T00:29:20.488Z,100651.80
2019-03-13T00:31:51.485Z,100652.03
2019-03-13T00:34:22.267Z,100645.02
2019-03-13T00:36:53.016Z,100638.58
2019-03-13T00:39:27.058Z,100636.41
2019-03-13T00:41:57.710Z,100631.23
2019-03-13T00:44:28.479Z,100628.77
2019-03-13T00:47:00.312Z,100621.69
2019-03-13T00:49:31.143Z,100617.57
2019-03-13T00:52:02.024Z,100611.90
2019-03-13T00:54:32.758Z,100618.62
2019-03-13T00:57:03.870Z,100613.93
2019-03-13T00:59:34.440Z,100608.98
2019-03-13T01:02:27.215Z,100606.59
2019-03-13T01:05:25.783Z,100599.39
2019-03-13T01:07:58.137Z,100597.91
2019-03-13T01:10:28.872Z,100604.88
2019-03-13T01:12:59.633Z,100607.27
2019-03-13T01:15:30.431Z,100616.95
2019-03-13T01:18:01.347Z,100605.56
2019-03-13T01:20:32.015Z,100601.89
2019-03-13T01:23:02.932Z,100595.67
2019-03-13T01:25:33.667Z,100606.27
2019-03-13T01:28:05.985Z,100603.92
2019-03-13T01:30:48.536Z,100601.52
2019-03-13T01:33:20.284Z,100610.56
2019-03-13T01:35:56.025Z,100609.72
2019-03-13T01:38:26.614Z,100595.12
2019-03-13T01:40:57.523Z,100601.58
2019-03-13T01:43:28.317Z,100599.50
2019-03-13T01:46:00.162Z,100604.23
2019-03-13T01:48:31.032Z,100606.08
2019-03-13T01:51:02.107Z,100604.17
2019-03-13T01:53:33.364Z,100598.38
2019-03-13T01:56:03.943Z,100602.08
2019-03-13T01:58:34.767Z,100600.22
2019-03-13T02:01:07.291Z,100603.69
2019-03-13T02:03:38.076Z,100602.02
2019-03-13T02:06:09.226Z,100609.83
2019-03-13T02:08:39.876Z,100610.01
2019-03-13T02:11:11.026Z,100613.41
2019-03-13T02:13:42.297Z,100609.16
2019-03-13T02:16:12.854Z,100610.01
2019-03-13T02:18:43.408Z,100611.74
2019-03-13T02:21:15.734Z,100615.12
2019-03-13T02:23:46.615Z,100610.01
2019-03-13T02:26:18.769Z,100613.59
2019-03-13T02:28:50.029Z,100610.89
2019-03-13T02:31:20.787Z,100611.86
2019-03-13T02:33:51.763Z,100614.56
2019-03-13T02:36:22.352Z,100617.15
2019-03-13T02:38:53.064Z,100617.20
2019-03-13T02:41:24.362Z,100623.05
2019-03-13T02:43:55.100Z,100621.46
2019-03-13T02:46:25.799Z,100626.75
2019-03-13T02:48:56.554Z,100623.20
2019-03-13T02:51:27.250Z,100619.73
2019-03-13T02:53:58.415Z,100620.79
2019-03-13T02:56:30.757Z,100638.99
2019-03-13T02:59:01.508Z,100631.56
2019-03-13T03:01:51.027Z,100626.45
2019-03-13T03:04:21.905Z,100620.73
2019-03-13T03:06:52.740Z,100622.58
2019-03-13T03:09:23.599Z,100623.05
2019-03-13T03:11:54.399Z,100626.45
2019-03-13T03:14:26.653Z,100632.41
2019-03-13T03:16:57.509Z,100643.48
2019-03-13T03:19:31.695Z,100646.13
2019-03-13T03:22:02.451Z,100636.59
2019-03-13T03:24:34.255Z,100640.11
2019-03-13T03:27:04.904Z,100633.15
2019-03-13T03:29:38.917Z,100635.91
2019-03-13T03:32:09.118Z,100638.44
2019-03-13T03:34:39.921Z,100648.66
2019-03-13T03:37:10.588Z,100636.91
2019-03-13T03:39:41.514Z,100645.72
2019-03-13T03:42:12.112Z,100653.20
2019-03-13T03:44:42.685Z,100641.95
2019-03-13T03:47:13.139Z,100649.33
2019-03-13T03:49:44.282Z,100652.75
2019-03-13T03:52:14.893Z,100659.92
2019-03-13T03:54:45.606Z,100656.71
2019-03-13T03:57:16.539Z,100651.94
2019-03-13T03:59:49.260Z,100655.13
2019-03-13T04:02:19.995Z,100660.91
2019-03-13T04:04:50.851Z,100656.64
2019-03-13T04:07:21.678Z,100666.12
2019-03-13T04:09:52.353Z,100664.03
2019-03-13T04:12:23.077Z,100660.52
2019-03-13T04:14:54.203Z,100681.62
2019-03-13T04:17:24.929Z,100660.27
2019-03-13T04:19:55.644Z,100673.07
2019-03-13T04:22:26.308Z,100669.91
2019-03-13T04:25:11.106Z,100668.37
2019-03-13T04:27:41.953Z,100664.42
2019-03-13T04:30:15.327Z,100676.58
2019-03-13T04:32:47.042Z,100668.37
2019-03-13T04:35:18.000Z,100666.00
2019-03-13T04:37:48.819Z,100667.84
2019-03-13T04:40:19.628Z,100664.28
2019-03-13T04:42:50.364Z,100672.84
2019-03-13T04:45:22.212Z,100675.37
2019-03-13T04:47:52.816Z,100667.67
2019-03-13T04:50:24.083Z,100669.93
2019-03-13T04:52:55.377Z,100662.38
2019-03-13T04:55:27.582Z,100672.66
2019-03-13T04:57:58.685Z,100678.84
2019-03-13T05:00:30.169Z,100673.07
2019-03-13T05:03:01.193Z,100670.33
2019-03-13T05:05:48.370Z,100664.72
2019-03-13T05:08:26.604Z,100670.13
2019-03-13T05:10:58.472Z,100683.38
2019-03-13T05:13:29.206Z,100696.81
2019-03-13T05:16:00.105Z,100680.38
2019-03-13T05:18:30.887Z,100695.72
2019-03-13T05:21:01.916Z,100689.51
2019-03-13T05:23:32.695Z,100688.55
2019-03-13T05:26:03.515Z,100700.85
2019-03-13T05:28:34.429Z,100705.70
2019-03-13T05:31:05.620Z,100696.30
2019-03-13T05:33:36.707Z,100699.00
2019-03-13T05:36:07.665Z,100701.64
2019-03-13T05:38:38.547Z,100701.20
2019-03-13T05:41:10.580Z,100700.85
2019-03-13T05:43:41.554Z,100699.50
2019-03-13T05:46:13.009Z,100711.56
2019-03-13T05:48:43.775Z,100731.20
2019-03-13T05:51:16.455Z,100723.57
2019-03-13T05:53:48.839Z,100712.76
2019-03-13T05:56:19.928Z,100729.88
2019-03-13T05:58:52.116Z,100720.72
2019-03-13T06:01:22.984Z,100724.17
2019-03-13T06:03:53.685Z,100723.66
2019-03-13T06:06:26.065Z,100731.31
2019-03-13T06:08:57.564Z,100729.16
2019-03-13T06:11:28.259Z,100709.33
2019-03-13T06:13:59.086Z,100719.25
2019-03-13T06:16:30.019Z,100726.86
2019-03-13T06:19:00.758Z,100745.16
2019-03-13T06:21:55.688Z,100751.25
2019-03-13T06:24:26.673Z,100745.97
2019-03-13T06:26:57.587Z,100739.89
2019-03-13T06:29:31.590Z,100744.66
2019-03-13T06:32:00.941Z,100750.30
2019-03-13T06:34:31.618Z,100759.43
2019-03-13T06:37:02.451Z,100752.56
2019-03-13T06:39:33.138Z,100755.97
2019-03-13T06:42:04.104Z,100758.58
2019-03-13T06:44:35.215Z,100762.52
2019-03-13T06:47:05.531Z,100767.17
2019-03-13T06:49:36.633Z,100766.11
2019-03-13T06:52:08.333Z,100775.32
2019-03-13T06:54:38.866Z,100775.32
2019-03-13T06:57:09.524Z,100784.44
2019-03-13T06:59:57.697Z,100789.10
2019-03-13T07:02:41.221Z,100782.39
2019-03-13T07:05:30.491Z,100788.88
2019-03-13T07:08:27.659Z,100791.39
2019-03-13T07:11:15.181Z,100793.58
2019-03-13T07:14:05.414Z,100785.20
2019-03-13T07:17:07.228Z,100793.55
2019-03-13T07:20:02.971Z,100795.47
2019-03-13T07:22:50.789Z,100806.52
2019-03-13T07:25:52.716Z,100812.50
2019-03-13T07:28:41.826Z,100805.86
2019-03-13T07:31:23.457Z,100796.69
2019-03-13T07:34:08.071Z,100803.34
2019-03-13T07:36:50.938Z,100797.55
2019-03-13T07:40:10.791Z,100806.98
2019-03-13T07:42:54.341Z,100808.16
2019-03-13T07:45:43.474Z,100816.52
2019-03-13T07:48:32.537Z,100822.30
2019-03-13T07:51:11.168Z,100813.40
2019-03-13T07:53:53.050Z,100813.28
2019-03-13T07:56:45.116Z,100805.94
2019-03-13T07:59:23.518Z,100818.00
2019-03-13T08:02:13.392Z,100805.15
2019-03-13T08:04:56.522Z,100809.87
2019-03-13T08:07:51.118Z,100814.17
2019-03-13T08:10:40.588Z,100819.03
2019-03-13T08:13:29.750Z,100819.45
2019-03-13T08:16:17.594Z,100813.91
2019-03-13T08:19:05.535Z,100818.19
2019-03-13T08:21:53.771Z,100814.13
2019-03-13T08:24:46.222Z,100802.16
2019-03-13T08:27:38.518Z,100823.60
2019-03-13T08:30:43.502Z,100814.17
2019-03-13T08:33:45.162Z,100805.05
2019-03-13T08:36:40.510Z,100823.75
2019-03-13T08:39:16.914Z,100809.16
2019-03-13T08:42:04.914Z,100811.06
2019-03-13T08:44:56.917Z,100798.25
2019-03-13T08:47:35.526Z,100806.67
2019-03-13T08:50:31.263Z,100790.03
2019-03-13T08:53:19.824Z,100821.99
2019-03-13T08:55:58.324Z,100795.53
2019-03-13T08:58:50.264Z,100793.83
2019-03-13T09:01:39.632Z,100793.66
2019-03-13T09:04:26.250Z,100803.41
2019-03-13T09:07:17.876Z,100790.30
2019-03-13T09:09:54.457Z,100799.13
2019-03-13T09:12:46.559Z,100800.72
2019-03-13T09:15:36.151Z,100796.90
2019-03-13T09:18:43.648Z,100796.60
2019-03-13T09:21:26.464Z,100795.08
2019-03-13T09:24:12.972Z,100780.33
2019-03-13T09:26:59.474Z,100778.63
2019-03-13T09:29:49.268Z,100773.34
2019-03-13T09:32:45.909Z,100780.17
2019-03-13T09:35:46.984Z,100788.89
2019-03-13T09:38:44.934Z,100795.45
2019-03-13T09:41:33.170Z,100790.86
2019-03-13T09:44:29.295Z,100785.51
2019-03-13T09:47:08.657Z,100783.38
2019-03-13T09:49:58.122Z,100777.04
2019-03-13T09:52:55.802Z,100780.46
2019-03-13T09:55:44.042Z,100776.34
2019-03-13T09:58:40.667Z,100771.44
2019-03-13T10:01:28.842Z,100772.57
2019-03-13T10:04:17.181Z,100772.13
2019-03-13T10:07:01.906Z,100787.81
2019-03-13T10:09:52.428Z,100784.60
2019-03-13T10:12:33.397Z,100786.59
2019-03-13T10:15:22.577Z,100767.61
2019-03-13T10:18:19.525Z,100785.13
2019-03-13T10:21:07.444Z,100771.83
2019-03-13T10:24:07.296Z,100768.30
2019-03-13T10:27:02.912Z,100770.90
2019-03-13T10:29:55.021Z,100787.22
2019-03-13T10:32:42.870Z,100777.64
2019-03-13T10:35:30.794Z,100778.85
2019-03-13T10:38:32.494Z,100782.77
2019-03-13T10:41:12.402Z,100771.61
2019-03-13T10:44:01.568Z,100775.05
2019-03-13T10:46:47.180Z,100772.67
2019-03-13T10:49:36.858Z,100771.84
2019-03-13T10:52:30.821Z,100773.22
2019-03-13T10:55:08.460Z,100767.69
2019-03-13T10:58:00.567Z,100765.09
2019-03-13T11:00:58.946Z,100764.64
2019-03-13T11:03:54.269Z,100760.21
2019-03-13T11:06:54.970Z,100761.67
2019-03-13T11:09:26.683Z,100767.16
2019-03-13T11:12:02.732Z,100753.95
2019-03-13T11:14:50.978Z,100752.56
2019-03-13T11:17:40.651Z,100754.00
2019-03-13T11:20:38.214Z,100752.12
2019-03-13T11:23:43.663Z,100752.25
2019-03-13T11:26:32.011Z,100752.25
2019-03-13T11:29:22.724Z,100748.02
2019-03-13T11:32:12.217Z,100756.52
2019-03-13T11:34:49.768Z,100755.14
2019-03-13T11:37:39.258Z,100745.98
2019-03-13T11:40:23.214Z,100746.06
2019-03-13T11:43:07.742Z,100739.56
2019-03-13T11:45:54.143Z,100736.41
2019-03-13T11:48:43.430Z,100746.91
2019-03-13T11:51:49.169Z,100729.53
2019-03-13T11:54:36.213Z,100731.06
2019-03-13T11:57:21.802Z,100728.17
2019-03-13T12:00:02.063Z,100728.62
2019-03-13T12:02:57.667Z,100728.70
2019-03-13T12:05:53.892Z,100722.28
2019-03-13T12:08:41.757Z,100724.95
2019-03-13T12:11:40.436Z,100724.56
2019-03-13T12:14:36.253Z,100728.09
2019-03-13T12:17:23.978Z,100725.73
2019-03-13T12:20:06.391Z,100715.55
2019-03-13T12:23:14.198Z,100713.78
2019-03-13T12:26:03.510Z,100718.23
2019-03-13T12:28:46.909Z,100721.50
2019-03-13T12:31:54.920Z,100715.09
2019-03-13T12:35:02.809Z,100712.33
2019-03-13T12:37:55.574Z,100707.14
2019-03-13T12:40:38.636Z,100707.91
2019-03-13T12:43:25.753Z,100703.16
2019-03-13T12:46:15.715Z,100719.61
2019-03-13T12:49:08.622Z,100708.02
2019-03-13T12:51:53.225Z,100708.55
2019-03-13T12:54:58.366Z,100708.48
2019-03-13T12:57:54.397Z,100719.72
2019-03-13T13:00:33.420Z,100718.05
2019-03-13T13:03:17.175Z,100711.87
2019-03-13T13:06:02.052Z,100702.89
2019-03-13T13:09:03.886Z,100705.72
2019-03-13T13:11:53.364Z,100716.28
2019-03-13T13:14:42.335Z,100703.97
2019-03-13T13:17:35.791Z,100708.63
2019-03-13T13:20:07.392Z,100706.72
2019-03-13T13:22:37.942Z,100694.26
2019-03-13T13:25:09.727Z,100693.41
2019-03-13T13:27:40.388Z,100694.64
2019-03-13T13:30:12.146Z,100684.78
2019-03-13T13:32:43.008Z,100680.43
2019-03-13T13:35:14.058Z,100679.83
2019-03-13T13:37:44.735Z,100685.69
2019-03-13T13:40:15.673Z,100689.95
2019-03-13T13:42:46.476Z,100688.54
2019-03-13T13:45:47.365Z,100685.53
2019-03-13T13:48:17.854Z,100690.98
2019-03-13T13:50:48.301Z,100696.00
2019-03-13T13:53:18.819Z,100691.64
2019-03-13T13:55:49.472Z,100687.88
2019-03-13T13:58:20.026Z,100691.47
2019-03-13T14:00:50.676Z,100695.05
2019-03-13T14:03:23.030Z,100704.52
2019-03-13T14:05:53.789Z,100702.86
2019-03-13T14:08:25.459Z,100705.45
2019-03-13T14:10:56.290Z,100706.05
2019-03-13T14:13:27.396Z,100708.05
2019-03-13T14:15:58.244Z,100711.64
2019-03-13T14:18:29.437Z,100705.37
2019-03-13T14:21:00.181Z,100705.30
2019-03-13T14:23:30.774Z,100702.97
2019-03-13T14:26:01.516Z,100704.75
2019-03-13T14:28:31.969Z,100705.49
2019-03-13T14:31:03.598Z,100702.16
2019-03-13T14:33:33.956Z,100701.75
2019-03-13T14:36:04.657Z,100706.59
2019-03-13T14:38:35.149Z,100701.67
2019-03-13T14:41:06.248Z,100703.19
2019-03-13T14:43:36.902Z,100707.30
2019-03-13T14:46:07.712Z,100713.02
2019-03-13T14:48:38.360Z,100704.52
2019-03-13T14:51:09.117Z,100709.27
2019-03-13T14:53:40.211Z,100709.08
2019-03-13T14:56:10.940Z,100704.89
2019-03-13T14:58:41.414Z,100709.01
2019-03-13T15:01:12.168Z,100711.52
2019-03-13T15:03:42.743Z,100711.02
2019-03-13T15:06:13.416Z,100707.31
2019-03-13T15:08:44.274Z,100706.67
2019-03-13T15:11:15.138Z,100710.64
2019-03-13T15:13:45.698Z,100706.89
2019-03-13T15:16:16.368Z,100701.56
2019-03-13T15:18:47.342Z,100695.02
2019-03-13T15:21:18.019Z,100704.10
2019-03-13T15:23:48.908Z,100704.17
2019-03-13T15:26:19.574Z,100701.98
2019-03-13T15:28:50.113Z,100707.76
2019-03-13T15:31:21.182Z,100707.12
2019-03-13T15:33:52.114Z,100710.30
2019-03-13T15:36:22.777Z,100710.05
2019-03-13T15:38:54.286Z,100707.33
2019-03-13T15:41:24.948Z,100711.94
2019-03-13T15:43:55.818Z,100709.65
2019-03-13T15:46:26.603Z,100710.70
2019-03-13T15:48:57.418Z,100714.77
2019-03-13T15:51:27.987Z,100722.17
2019-03-13T15:53:59.826Z,100718.66
2019-03-13T15:56:30.791Z,100716.20
2019-03-13T15:59:01.994Z,100720.56
2019-03-13T16:01:32.428Z,100725.03
2019-03-13T16:04:03.251Z,100718.63
2019-03-13T16:06:35.743Z,100720.28
2019-03-13T16:09:08.305Z,100712.65
2019-03-13T16:11:38.850Z,100712.27
2019-03-13T16:14:10.874Z,100717.31
2019-03-13T16:16:41.797Z,100716.52
2019-03-13T16:19:12.271Z,100710.17
2019-03-13T16:21:44.200Z,100721.55
2019-03-13T16:24:14.568Z,100715.48
2019-03-13T16:26:45.021Z,100721.17
2019-03-13T16:29:17.255Z,100719.16
2019-03-13T16:31:48.274Z,100726.20
2019-03-13T16:34:18.730Z,100723.97
2019-03-13T16:36:49.558Z,100720.78
2019-03-13T16:39:20.077Z,100724.16
2019-03-13T16:41:51.303Z,100728.14
2019-03-13T16:44:22.301Z,100732.66
2019-03-13T16:49:58.765Z,100731.55
2019-03-13T16:52:29.390Z,100737.37
2019-03-13T16:54:59.813Z,100735.13
2019-03-13T16:57:30.776Z,100737.43
2019-03-13T17:00:01.645Z,100737.05
2019-03-13T17:02:32.740Z,100742.95
2019-03-13T17:05:03.277Z,100751.01
2019-03-13T17:07:33.931Z,100751.86
2019-03-13T17:10:05.746Z,100748.83
2019-03-13T17:12:37.193Z,100745.77
2019-03-13T17:15:10.260Z,100746.74
2019-03-13T17:17:41.045Z,100745.61
2019-03-13T17:20:14.288Z,100748.41
2019-03-13T17:22:46.071Z,100744.65
2019-03-13T17:25:19.319Z,100741.14
2019-03-13T17:27:50.275Z,100747.68
2019-03-13T17:30:22.541Z,100743.66
2019-03-13T17:32:53.366Z,100745.97
2019-03-13T17:35:24.008Z,100742.70
2019-03-13T17:37:54.574Z,100740.56
2019-03-13T17:40:25.981Z,100735.98
2019-03-13T17:42:56.831Z,100741.36
2019-03-13T17:45:27.766Z,100737.77
2019-03-13T17:47:59.293Z,100737.60
2019-03-13T17:50:30.240Z,100737.34
2019-03-13T17:53:01.076Z,100734.41
2019-03-13T17:55:31.773Z,100729.17
2019-03-13T17:58:05.783Z,100729.96
2019-03-13T18:00:42.817Z,100722.33
2019-03-13T18:03:13.772Z,100730.08
2019-03-13T18:05:44.224Z,100729.73
2019-03-13T18:08:15.204Z,100725.41
2019-03-13T18:10:45.984Z,100724.00
2019-03-13T18:13:16.782Z,100726.39
2019-03-13T18:15:47.835Z,100729.30
2019-03-13T18:18:20.311Z,100729.00
2019-03-13T18:20:51.432Z,100734.09
2019-03-13T18:23:23.519Z,100728.44
2019-03-13T18:25:55.374Z,100731.14
2019-03-13T18:28:28.377Z,100731.27
2019-03-13T18:31:01.803Z,100734.41
2019-03-13T18:33:31.601Z,100736.44
2019-03-13T18:36:02.378Z,100743.02
2019-03-13T18:38:33.627Z,100735.08
2019-03-13T18:41:04.153Z,100736.67
2019-03-13T18:43:34.790Z,100736.55
2019-03-13T18:46:06.972Z,100733.78
2019-03-13T18:48:39.004Z,100737.05
2019-03-13T18:51:13.512Z,100739.20
2019-03-13T18:53:43.961Z,100741.92
2019-03-13T18:56:15.030Z,100744.63
2019-03-13T18:58:45.877Z,100743.19
2019-03-13T19:01:16.874Z,100753.23
2019-03-13T19:03:47.550Z,100756.94
2019-03-13T19:06:18.128Z,100750.77
2019-03-13T19:08:49.628Z,100751.66
2019-03-13T19:11:20.424Z,100750.77
2019-03-13T19:13:53.146Z,100740.93
2019-03-13T19:16:23.882Z,100742.60
2019-03-13T19:18:55.020Z,100743.13
2019-03-13T19:21:25.857Z,100748.19
2019-03-13T19:23:56.498Z,100745.25
2019-03-13T19:26:27.122Z,100739.20
2019-03-13T19:29:01.249Z,100736.55
2019-03-13T19:31:30.602Z,100737.34
2019-03-13T19:34:01.286Z,100731.27
2019-03-13T19:36:32.262Z,100729.53
2019-03-13T19:39:03.530Z,100738.11
2019-03-13T19:41:35.930Z,100739.20
2019-03-13T19:44:06.608Z,100731.14
2019-03-13T19:46:37.479Z,100729.91
2019-03-13T19:49:08.422Z,100722.95
2019-03-13T19:51:40.232Z,100731.09
2019-03-13T19:54:11.985Z,100727.20
2019-03-13T19:56:43.057Z,100730.27
2019-03-13T19:59:14.519Z,100729.47
2019-03-13T20:01:45.372Z,100725.30
2019-03-13T20:04:16.128Z,100728.00
2019-03-13T20:06:47.289Z,100724.56
2019-03-13T20:09:17.896Z,100718.72
2019-03-13T20:11:52.914Z,100711.87
2019-03-13T20:14:23.741Z,100705.96
2019-03-13T20:16:54.097Z,100702.59
2019-03-13T20:19:24.745Z,100704.35
2019-03-13T20:21:55.855Z,100706.26
2019-03-13T20:24:26.562Z,100707.31
2019-03-13T20:26:57.412Z,100704.00
2019-03-13T20:29:27.830Z,100701.35
2019-03-13T20:31:58.296Z,100699.56
2019-03-13T20:34:29.156Z,100701.35
2019-03-13T20:36:59.601Z,100695.80
2019-03-13T20:39:30.305Z,100695.19
2019-03-13T20:42:00.681Z,100694.39
2019-03-13T20:44:31.380Z,100700.73
2019-03-13T20:47:01.954Z,100698.20
2019-03-13T20:49:32.702Z,100704.61
2019-03-13T20:52:04.359Z,100701.64
2019-03-13T20:54:35.059Z,100697.36
2019-03-13T20:57:05.740Z,100702.64
2019-03-13T20:59:36.525Z,100700.12
2019-03-13T21:02:07.580Z,100701.41
2019-03-13T21:04:38.767Z,100696.41
2019-03-13T21:07:09.414Z,100701.20
2019-03-13T21:09:39.758Z,100699.73
2019-03-13T21:12:10.710Z,100699.73
2019-03-13T21:14:41.103Z,100689.84
2019-03-13T21:17:11.635Z,100691.51
2019-03-13T21:19:43.262Z,100689.72
2019-03-13T21:22:13.691Z,100688.28
2019-03-13T21:24:44.429Z,100690.57
2019-03-13T21:27:15.126Z,100681.08
2019-03-13T21:29:45.482Z,100680.55
2019-03-13T21:32:16.371Z,100680.05
2019-03-13T21:34:47.447Z,100671.98
2019-03-13T21:37:17.916Z,100673.33
2019-03-13T21:39:48.532Z,100664.42
2019-03-13T21:42:21.360Z,100663.38
2019-03-13T21:44:52.217Z,100664.40
2019-03-13T21:47:22.875Z,100661.95
2019-03-13T21:49:53.601Z,100648.54
2019-03-13T21:52:24.483Z,100650.56
2019-03-13T21:54:55.229Z,100647.30
2019-03-13T21:57:26.312Z,100650.19
2019-03-13T21:59:57.086Z,100648.97
2019-03-13T22:02:32.891Z,100648.09
2019-03-13T22:05:00.381Z,100639.72
2019-03-13T22:07:31.325Z,100646.00
2019-03-13T22:10:03.782Z,100642.44
2019-03-13T22:12:34.460Z,100644.14
2019-03-13T22:15:05.220Z,100639.34
2019-03-13T22:17:36.118Z,100640.27
2019-03-13T22:20:07.235Z,100638.05
2019-03-13T22:22:39.177Z,100632.28
2019-03-13T22:25:10.366Z,100620.99
2019-03-13T22:27:41.221Z,100616.03
2019-03-13T22:30:15.169Z,100615.97
2019-03-13T22:32:45.902Z,100613.06
2019-03-13T22:35:17.435Z,100609.42
2019-03-13T22:37:48.384Z,100609.01
2019-03-13T22:40:19.171Z,100603.11
2019-03-13T22:42:51.239Z,100603.89
2019-03-13T22:45:22.534Z,100597.31
2019-03-13T22:47:53.592Z,100594.09
2019-03-13T22:50:24.214Z,100597.59
2019-03-13T22:52:55.094Z,100588.05
2019-03-13T22:55:26.296Z,100590.34
2019-03-13T22:57:57.090Z,100592.64
2019-03-13T23:00:52.598Z,100588.39
2019-03-13T23:03:23.824Z,100594.13
2019-03-13T23:05:55.116Z,100593.03
2019-03-13T23:08:26.034Z,100592.12
2019-03-13T23:10:56.838Z,100595.67
2019-03-13T23:13:28.167Z,100593.97
2019-03-13T23:16:00.230Z,100591.06
2019-03-13T23:18:31.228Z,100586.75
2019-03-13T23:21:04.286Z,100581.41
2019-03-13T23:23:35.038Z,100589.54
2019-03-13T23:26:05.953Z,100587.14
2019-03-13T23:28:36.802Z,100585.23
2019-03-13T23:31:10.037Z,100582.77
2019-03-13T23:33:40.826Z,100586.77
2019-03-13T23:36:11.426Z,100585.29
2019-03-13T23:38:43.311Z,100581.66
2019-03-13T23:41:14.661Z,100586.25
2019-03-13T23:43:45.647Z,100582.44
2019-03-13T23:46:16.395Z,100572.25
2019-03-13T23:48:47.094Z,100573.55
2019-03-13T23:51:18.108Z,100569.41
2019-03-13T23:53:49.660Z,100572.54
2019-03-13T23:56:20.449Z,100567.02
2019-03-13T23:58:51.389Z,100561.97
